sensor_id;sensor_type;location;lat;lon;timestamp;temperature;humidity
47857;DHT22;33618;49.972;8.242;2023-07-08T05:38:45;22.80;61.70
47857;DHT22;33618;49.972;8.242;2023-07-08T05:41:56;23.20;61.40
47857;DHT22;33618;49.972;8.242;2023-07-08T05:44:22;23.60;60.20
47857;DHT22;33618;49.972;8.242;2023-07-08T05:46:50;23.60;59.60
47857;DHT22;33618;49.972;8.242;2023-07-08T05:49:17;23.60;59.50
47857;DHT22;33618;49.972;8.242;2023-07-08T05:51:44;23.70;59.20
47857;DHT22;33618;49.972;8.242;2023-07-08T05:54:11;23.90;59.10
47857;DHT22;33618;49.972;8.242;2023-07-08T05:56:38;23.70;59.00
47857;DHT22;33618;49.972;8.242;2023-07-08T05:59:05;23.70;58.70
47857;DHT22;33618;49.972;8.242;2023-07-08T06:01:32;23.90;58.70
47857;DHT22;33618;49.972;8.242;2023-07-08T06:03:59;23.90;58.90
47857;DHT22;33618;49.972;8.242;2023-07-08T06:06:27;23.70;59.80
47857;DHT22;33618;49.972;8.242;2023-07-08T06:08:55;23.60;59.60
47857;DHT22;33618;49.972;8.242;2023-07-08T06:11:22;23.50;59.70
47857;DHT22;33618;49.972;8.242;2023-07-08T06:13:49;23.40;60.50
47857;DHT22;33618;49.972;8.242;2023-07-08T06:16:16;23.30;62.60
47857;DHT22;33618;49.972;8.242;2023-07-08T06:19:02;23.30;62.60
47857;DHT22;33618;49.972;8.242;2023-07-08T06:21:29;23.30;63.10
47857;DHT22;33618;49.972;8.242;2023-07-08T06:23:56;23.20;64.00
47857;DHT22;33618;49.972;8.242;2023-07-08T06:26:23;23.20;64.10
47857;DHT22;33618;49.972;8.242;2023-07-08T06:28:50;23.10;65.60
47857;DHT22;33618;49.972;8.242;2023-07-08T06:31:17;23.00;64.50
47857;DHT22;33618;49.972;8.242;2023-07-08T06:33:44;23.10;64.50
47857;DHT22;33618;49.972;8.242;2023-07-08T06:36:12;23.40;63.10
47857;DHT22;33618;49.972;8.242;2023-07-08T06:38:39;23.70;62.50
47857;DHT22;33618;49.972;8.242;2023-07-08T06:41:06;23.90;61.90
47857;DHT22;33618;49.972;8.242;2023-07-08T06:43:34;24.00;61.40
47857;DHT22;33618;49.972;8.242;2023-07-08T06:46:01;24.00;61.30
47857;DHT22;33618;49.972;8.242;2023-07-08T06:48:28;24.00;60.70
47857;DHT22;33618;49.972;8.242;2023-07-08T06:50:55;24.00;60.20
47857;DHT22;33618;49.972;8.242;2023-07-08T06:53:21;24.10;60.90
47857;DHT22;33618;49.972;8.242;2023-07-08T06:55:49;24.10;61.40
47857;DHT22;33618;49.972;8.242;2023-07-08T06:58:16;24.20;61.80
47857;DHT22;33618;49.972;8.242;2023-07-08T07:00:44;24.20;62.30
47857;DHT22;33618;49.972;8.242;2023-07-08T07:03:12;24.10;62.70
47857;DHT22;33618;49.972;8.242;2023-07-08T07:05:40;24.20;61.80
47857;DHT22;33618;49.972;8.242;2023-07-08T07:08:07;24.20;62.40
47857;DHT22;33618;49.972;8.242;2023-07-08T07:10:34;24.10;62.50
47857;DHT22;33618;49.972;8.242;2023-07-08T07:13:03;24.30;61.90
47857;DHT22;33618;49.972;8.242;2023-07-08T07:15:30;24.30;61.30
47857;DHT22;33618;49.972;8.242;2023-07-08T07:17:58;24.30;62.20
47857;DHT22;33618;49.972;8.242;2023-07-08T07:20:26;24.40;61.50
47857;DHT22;33618;49.972;8.242;2023-07-08T07:22:53;24.40;63.10
47857;DHT22;33618;49.972;8.242;2023-07-08T07:25:20;24.30;63.40
47857;DHT22;33618;49.972;8.242;2023-07-08T07:27:48;24.40;62.40
47857;DHT22;33618;49.972;8.242;2023-07-08T07:30:15;24.60;61.70
47857;DHT22;33618;49.972;8.242;2023-07-08T07:32:43;24.60;62.20
47857;DHT22;33618;49.972;8.242;2023-07-08T07:35:11;24.70;62.10
47857;DHT22;33618;49.972;8.242;2023-07-08T07:37:40;24.80;61.70
47857;DHT22;33618;49.972;8.242;2023-07-08T07:40:09;24.80;60.00
47857;DHT22;33618;49.972;8.242;2023-07-08T07:42:40;24.80;60.60
47857;DHT22;33618;49.972;8.242;2023-07-08T07:45:07;24.80;60.50
47857;DHT22;33618;49.972;8.242;2023-07-08T07:47:35;24.90;59.80
47857;DHT22;33618;49.972;8.242;2023-07-08T07:50:08;25.10;60.60
47857;DHT22;33618;49.972;8.242;2023-07-08T07:52:35;25.20;60.00
47857;DHT22;33618;49.972;8.242;2023-07-08T07:55:02;25.30;60.20
47857;DHT22;33618;49.972;8.242;2023-07-08T07:57:29;25.40;59.60
47857;DHT22;33618;49.972;8.242;2023-07-08T07:59:56;25.50;59.30
47857;DHT22;33618;49.972;8.242;2023-07-08T08:02:23;25.50;58.90
47857;DHT22;33618;49.972;8.242;2023-07-08T08:04:50;25.50;58.50
47857;DHT22;33618;49.972;8.242;2023-07-08T08:07:17;25.50;57.80
47857;DHT22;33618;49.972;8.242;2023-07-08T08:09:44;25.50;58.50
47857;DHT22;33618;49.972;8.242;2023-07-08T08:12:12;25.60;58.40
47857;DHT22;33618;49.972;8.242;2023-07-08T08:14:39;25.80;57.90
47857;DHT22;33618;49.972;8.242;2023-07-08T08:17:06;25.80;57.60
47857;DHT22;33618;49.972;8.242;2023-07-08T08:19:33;26.00;57.90
47857;DHT22;33618;49.972;8.242;2023-07-08T08:22:00;26.00;57.80
47857;DHT22;33618;49.972;8.242;2023-07-08T08:24:27;26.10;57.30
47857;DHT22;33618;49.972;8.242;2023-07-08T08:26:54;26.10;56.90
47857;DHT22;33618;49.972;8.242;2023-07-08T08:29:21;26.20;56.60
47857;DHT22;33618;49.972;8.242;2023-07-08T08:31:48;26.20;56.40
47857;DHT22;33618;49.972;8.242;2023-07-08T08:51:48;27.40;55.00
47857;DHT22;33618;49.972;8.242;2023-07-08T08:54:16;27.50;55.10
47857;DHT22;33618;49.972;8.242;2023-07-08T08:59:37;27.70;54.40
47857;DHT22;33618;49.972;8.242;2023-07-08T09:02:42;27.90;54.00
47857;DHT22;33618;49.972;8.242;2023-07-08T09:05:14;27.90;54.50
47857;DHT22;33618;49.972;8.242;2023-07-08T09:08:10;27.90;54.50
47857;DHT22;33618;49.972;8.242;2023-07-08T09:13:23;28.20;54.20
47857;DHT22;33618;49.972;8.242;2023-07-08T09:16:18;28.40;54.20
47857;DHT22;33618;49.972;8.242;2023-07-08T09:21:30;29.00;54.20
47857;DHT22;33618;49.972;8.242;2023-07-08T09:24:02;28.60;54.10
47857;DHT22;33618;49.972;8.242;2023-07-08T09:26:30;28.30;54.20
47857;DHT22;33618;49.972;8.242;2023-07-08T09:28:58;28.30;54.10
47857;DHT22;33618;49.972;8.242;2023-07-08T09:31:30;28.40;53.70
47857;DHT22;33618;49.972;8.242;2023-07-08T09:34:15;28.50;54.10
47857;DHT22;33618;49.972;8.242;2023-07-08T09:36:46;28.60;54.10
47857;DHT22;33618;49.972;8.242;2023-07-08T09:39:20;28.50;54.70
47857;DHT22;33618;49.972;8.242;2023-07-08T09:41:49;28.50;54.20
47857;DHT22;33618;49.972;8.242;2023-07-08T09:44:24;28.50;54.50
47857;DHT22;33618;49.972;8.242;2023-07-08T09:46:57;28.70;54.70
47857;DHT22;33618;49.972;8.242;2023-07-08T09:49:31;28.90;54.70
47857;DHT22;33618;49.972;8.242;2023-07-08T09:52:00;29.10;54.80
47857;DHT22;33618;49.972;8.242;2023-07-08T09:54:28;29.20;54.70
47857;DHT22;33618;49.972;8.242;2023-07-08T09:57:09;29.50;54.30
47857;DHT22;33618;49.972;8.242;2023-07-08T09:59:46;30.40;53.60
47857;DHT22;33618;49.972;8.242;2023-07-08T10:04:57;30.20;53.60
47857;DHT22;33618;49.972;8.242;2023-07-08T10:07:31;30.00;54.00
47857;DHT22;33618;49.972;8.242;2023-07-08T10:10:04;29.80;54.10
47857;DHT22;33618;49.972;8.242;2023-07-08T10:12:34;29.80;53.70
47857;DHT22;33618;49.972;8.242;2023-07-08T10:15:24;30.00;54.00
47857;DHT22;33618;49.972;8.242;2023-07-08T10:17:53;29.60;54.00
47857;DHT22;33618;49.972;8.242;2023-07-08T10:20:22;29.50;54.20
47857;DHT22;33618;49.972;8.242;2023-07-08T10:23:05;29.90;53.70
47857;DHT22;33618;49.972;8.242;2023-07-08T10:26:09;30.40;53.20
47857;DHT22;33618;49.972;8.242;2023-07-08T10:34:16;32.60;52.40
47857;DHT22;33618;49.972;8.242;2023-07-08T10:45:10;33.80;51.90
47857;DHT22;33618;49.972;8.242;2023-07-08T10:50:18;34.30;51.00
47857;DHT22;33618;49.972;8.242;2023-07-08T10:53:30;34.30;50.90
47857;DHT22;33618;49.972;8.242;2023-07-08T10:59:09;34.40;50.80
47857;DHT22;33618;49.972;8.242;2023-07-08T11:02:10;34.10;51.00
47857;DHT22;33618;49.972;8.242;2023-07-08T11:10:16;34.10;51.40
47857;DHT22;33618;49.972;8.242;2023-07-08T11:12:51;34.70;50.60
47857;DHT22;33618;49.972;8.242;2023-07-08T11:15:31;34.70;51.00
47857;DHT22;33618;49.972;8.242;2023-07-08T11:18:13;34.90;50.90
47857;DHT22;33618;49.972;8.242;2023-07-08T11:20:56;34.80;51.00
47857;DHT22;33618;49.972;8.242;2023-07-08T11:23:37;35.00;50.70
47857;DHT22;33618;49.972;8.242;2023-07-08T11:29:00;35.60;50.60
47857;DHT22;33618;49.972;8.242;2023-07-08T11:31:30;35.60;50.60
47857;DHT22;33618;49.972;8.242;2023-07-08T11:33:59;35.50;50.40
47857;DHT22;33618;49.972;8.242;2023-07-08T11:36:27;35.30;50.80
47857;DHT22;33618;49.972;8.242;2023-07-08T11:38:56;35.70;50.60
47857;DHT22;33618;49.972;8.242;2023-07-08T11:41:26;36.00;50.40
47857;DHT22;33618;49.972;8.242;2023-07-08T11:44:03;35.60;50.50
47857;DHT22;33618;49.972;8.242;2023-07-08T11:46:31;35.30;50.60
47857;DHT22;33618;49.972;8.242;2023-07-08T11:49:11;35.10;50.90
47857;DHT22;33618;49.972;8.242;2023-07-08T11:51:44;35.00;51.30
47857;DHT22;33618;49.972;8.242;2023-07-08T11:54:19;35.20;51.00
47857;DHT22;33618;49.972;8.242;2023-07-08T11:59:20;34.90;51.10
47857;DHT22;33618;49.972;8.242;2023-07-08T12:02:16;34.80;51.50
47857;DHT22;33618;49.972;8.242;2023-07-08T12:05:13;35.50;50.80
47857;DHT22;33618;49.972;8.242;2023-07-08T12:07:42;36.00;50.90
47857;DHT22;33618;49.972;8.242;2023-07-08T12:12:44;36.20;50.60
47857;DHT22;33618;49.972;8.242;2023-07-08T12:15:22;36.30;51.20
47857;DHT22;33618;49.972;8.242;2023-07-08T12:17:52;36.30;50.50
47857;DHT22;33618;49.972;8.242;2023-07-08T12:20:32;36.30;50.70
47857;DHT22;33618;49.972;8.242;2023-07-08T12:22:59;36.20;50.70
47857;DHT22;33618;49.972;8.242;2023-07-08T12:25:33;36.70;50.50
47857;DHT22;33618;49.972;8.242;2023-07-08T12:28:02;36.90;50.10
47857;DHT22;33618;49.972;8.242;2023-07-08T12:30:31;37.00;50.60
47857;DHT22;33618;49.972;8.242;2023-07-08T12:32:59;37.00;50.30
47857;DHT22;33618;49.972;8.242;2023-07-08T12:35:29;36.60;50.90
47857;DHT22;33618;49.972;8.242;2023-07-08T12:38:09;36.50;51.00
47857;DHT22;33618;49.972;8.242;2023-07-08T12:49:25;37.20;50.20
47857;DHT22;33618;49.972;8.242;2023-07-08T12:51:56;37.00;50.20
47857;DHT22;33618;49.972;8.242;2023-07-08T12:54:23;37.20;49.10
47857;DHT22;33618;49.972;8.242;2023-07-08T12:56:51;37.40;48.80
47857;DHT22;33618;49.972;8.242;2023-07-08T12:59:21;37.10;49.30
47857;DHT22;33618;49.972;8.242;2023-07-08T13:01:49;37.00;49.60
47857;DHT22;33618;49.972;8.242;2023-07-08T13:04:17;37.10;49.50
47857;DHT22;33618;49.972;8.242;2023-07-08T13:06:46;37.40;48.90
47857;DHT22;33618;49.972;8.242;2023-07-08T13:11:51;37.80;48.70
47857;DHT22;33618;49.972;8.242;2023-07-08T13:14:20;37.70;49.20
47857;DHT22;33618;49.972;8.242;2023-07-08T13:16:48;37.80;49.00
47857;DHT22;33618;49.972;8.242;2023-07-08T13:19:16;37.90;47.60
47857;DHT22;33618;49.972;8.242;2023-07-08T13:21:46;37.90;48.80
47857;DHT22;33618;49.972;8.242;2023-07-08T13:24:13;37.90;49.20
47857;DHT22;33618;49.972;8.242;2023-07-08T13:26:45;38.00;48.90
47857;DHT22;33618;49.972;8.242;2023-07-08T13:29:23;37.70;48.90
47857;DHT22;33618;49.972;8.242;2023-07-08T13:32:03;37.90;48.60
47857;DHT22;33618;49.972;8.242;2023-07-08T13:34:32;38.00;48.80
47857;DHT22;33618;49.972;8.242;2023-07-08T13:37:00;38.20;48.10
47857;DHT22;33618;49.972;8.242;2023-07-08T13:39:32;38.10;48.70
47857;DHT22;33618;49.972;8.242;2023-07-08T13:42:00;37.90;48.60
47857;DHT22;33618;49.972;8.242;2023-07-08T13:44:28;38.00;48.40
47857;DHT22;33618;49.972;8.242;2023-07-08T13:46:57;38.40;48.60
47857;DHT22;33618;49.972;8.242;2023-07-08T13:49:40;38.10;48.30
47857;DHT22;33618;49.972;8.242;2023-07-08T13:54:48;37.40;48.10
47857;DHT22;33618;49.972;8.242;2023-07-08T13:57:17;37.30;48.40
47857;DHT22;33618;49.972;8.242;2023-07-08T13:59:44;37.30;48.00
47857;DHT22;33618;49.972;8.242;2023-07-08T14:02:20;37.50;47.90
47857;DHT22;33618;49.972;8.242;2023-07-08T14:04:48;37.60;48.00
47857;DHT22;33618;49.972;8.242;2023-07-08T14:07:19;37.90;48.00
47857;DHT22;33618;49.972;8.242;2023-07-08T14:09:46;38.10;48.00
47857;DHT22;33618;49.972;8.242;2023-07-08T14:12:13;38.10;48.00
47857;DHT22;33618;49.972;8.242;2023-07-08T14:14:40;38.40;47.90
47857;DHT22;33618;49.972;8.242;2023-07-08T14:17:20;38.10;48.00
47857;DHT22;33618;49.972;8.242;2023-07-08T14:19:48;38.40;47.80
47857;DHT22;33618;49.972;8.242;2023-07-08T14:24:48;38.70;47.60
47857;DHT22;33618;49.972;8.242;2023-07-08T14:27:14;38.90;47.90
47857;DHT22;33618;49.972;8.242;2023-07-08T14:29:46;39.10;47.80
47857;DHT22;33618;49.972;8.242;2023-07-08T14:32:25;38.80;47.60
47857;DHT22;33618;49.972;8.242;2023-07-08T14:35:16;38.20;47.90
47857;DHT22;33618;49.972;8.242;2023-07-08T14:37:43;37.90;47.60
47857;DHT22;33618;49.972;8.242;2023-07-08T14:40:35;37.90;47.50
47857;DHT22;33618;49.972;8.242;2023-07-08T14:43:06;37.80;48.00
47857;DHT22;33618;49.972;8.242;2023-07-08T14:45:54;38.00;48.20
47857;DHT22;33618;49.972;8.242;2023-07-08T14:48:23;38.50;47.70
47857;DHT22;33618;49.972;8.242;2023-07-08T14:50:52;38.70;47.60
47857;DHT22;33618;49.972;8.242;2023-07-08T14:53:19;39.00;47.20
47857;DHT22;33618;49.972;8.242;2023-07-08T14:55:49;39.30;47.00
47857;DHT22;33618;49.972;8.242;2023-07-08T14:58:23;39.40;47.60
47857;DHT22;33618;49.972;8.242;2023-07-08T15:00:55;39.50;46.60
47857;DHT22;33618;49.972;8.242;2023-07-08T15:03:26;39.70;47.40
47857;DHT22;33618;49.972;8.242;2023-07-08T15:05:54;39.40;47.40
47857;DHT22;33618;49.972;8.242;2023-07-08T15:08:21;39.60;47.30
47857;DHT22;33618;49.972;8.242;2023-07-08T15:10:50;39.60;47.50
47857;DHT22;33618;49.972;8.242;2023-07-08T15:13:24;39.80;46.80
47857;DHT22;33618;49.972;8.242;2023-07-08T15:15:53;40.00;47.70
47857;DHT22;33618;49.972;8.242;2023-07-08T15:18:20;39.90;47.10
47857;DHT22;33618;49.972;8.242;2023-07-08T15:20:47;39.70;47.20
47857;DHT22;33618;49.972;8.242;2023-07-08T15:26:54;40.10;47.10
47857;DHT22;33618;49.972;8.242;2023-07-08T15:29:23;40.10;46.80
47857;DHT22;33618;49.972;8.242;2023-07-08T15:31:50;40.10;47.20
47857;DHT22;33618;49.972;8.242;2023-07-08T15:34:20;39.80;47.00
47857;DHT22;33618;49.972;8.242;2023-07-08T15:36:48;39.70;47.20
47857;DHT22;33618;49.972;8.242;2023-07-08T15:39:15;39.60;47.30
47857;DHT22;33618;49.972;8.242;2023-07-08T15:41:42;39.70;46.80
47857;DHT22;33618;49.972;8.242;2023-07-08T15:44:14;39.70;47.20
47857;DHT22;33618;49.972;8.242;2023-07-08T15:47:01;39.10;46.90
47857;DHT22;33618;49.972;8.242;2023-07-08T15:49:28;38.20;47.70
47857;DHT22;33618;49.972;8.242;2023-07-08T15:52:00;37.70;48.00
47857;DHT22;33618;49.972;8.242;2023-07-08T15:54:27;37.40;48.10
47857;DHT22;33618;49.972;8.242;2023-07-08T15:56:54;37.10;48.40
47857;DHT22;33618;49.972;8.242;2023-07-08T15:59:26;36.80;48.40
47857;DHT22;33618;49.972;8.242;2023-07-08T16:01:53;36.40;48.70
47857;DHT22;33618;49.972;8.242;2023-07-08T16:04:33;35.90;48.70
47857;DHT22;33618;49.972;8.242;2023-07-08T16:07:01;35.60;49.00
47857;DHT22;33618;49.972;8.242;2023-07-08T16:09:28;35.40;49.20
47857;DHT22;33618;49.972;8.242;2023-07-08T16:11:55;35.00;49.40
47857;DHT22;33618;49.972;8.242;2023-07-08T16:14:22;34.80;49.60
47857;DHT22;33618;49.972;8.242;2023-07-08T16:16:53;34.60;49.50
47857;DHT22;33618;49.972;8.242;2023-07-08T16:19:23;34.40;49.60
47857;DHT22;33618;49.972;8.242;2023-07-08T16:21:50;34.20;50.00
47857;DHT22;33618;49.972;8.242;2023-07-08T16:24:17;34.20;50.20
47857;DHT22;33618;49.972;8.242;2023-07-08T16:26:44;34.10;49.90
47857;DHT22;33618;49.972;8.242;2023-07-08T16:29:15;33.90;50.00
47857;DHT22;33618;49.972;8.242;2023-07-08T16:31:43;33.70;49.80
47857;DHT22;33618;49.972;8.242;2023-07-08T16:34:13;33.60;50.00
47857;DHT22;33618;49.972;8.242;2023-07-08T16:36:41;33.40;50.50
47857;DHT22;33618;49.972;8.242;2023-07-08T16:39:08;33.20;50.80
47857;DHT22;33618;49.972;8.242;2023-07-08T16:41:36;33.10;50.90
47857;DHT22;33618;49.972;8.242;2023-07-08T16:44:15;33.00;51.10
47857;DHT22;33618;49.972;8.242;2023-07-08T16:46:43;32.90;51.10
47857;DHT22;33618;49.972;8.242;2023-07-08T16:49:10;32.90;50.90
47857;DHT22;33618;49.972;8.242;2023-07-08T16:51:38;32.90;50.90
47857;DHT22;33618;49.972;8.242;2023-07-08T16:54:14;32.80;50.70
47857;DHT22;33618;49.972;8.242;2023-07-08T16:56:43;32.90;50.50
47857;DHT22;33618;49.972;8.242;2023-07-08T16:59:11;32.80;50.50
47857;DHT22;33618;49.972;8.242;2023-07-08T17:01:39;32.80;50.80
47857;DHT22;33618;49.972;8.242;2023-07-08T17:04:11;32.90;51.40
47857;DHT22;33618;49.972;8.242;2023-07-08T17:06:40;32.70;51.50
47857;DHT22;33618;49.972;8.242;2023-07-08T17:09:10;32.20;53.40
47857;DHT22;33618;49.972;8.242;2023-07-08T17:11:38;31.70;54.40
47857;DHT22;33618;49.972;8.242;2023-07-08T17:14:05;31.20;54.70
47857;DHT22;33618;49.972;8.242;2023-07-08T17:16:35;30.50;54.60
47857;DHT22;33618;49.972;8.242;2023-07-08T17:19:03;30.00;54.50
47857;DHT22;33618;49.972;8.242;2023-07-08T17:21:30;29.50;54.50
47857;DHT22;33618;49.972;8.242;2023-07-08T17:23:57;29.00;54.80
47857;DHT22;33618;49.972;8.242;2023-07-08T17:26:23;28.70;55.10
47857;DHT22;33618;49.972;8.242;2023-07-08T17:28:51;28.40;55.30
47857;DHT22;33618;49.972;8.242;2023-07-08T17:31:21;28.40;55.20
47857;DHT22;33618;49.972;8.242;2023-07-08T17:33:54;28.50;55.20
47857;DHT22;33618;49.972;8.242;2023-07-08T17:36:31;28.40;55.30
47857;DHT22;33618;49.972;8.242;2023-07-08T17:38:59;28.20;55.30
47857;DHT22;33618;49.972;8.242;2023-07-08T17:41:26;28.00;55.50
47857;DHT22;33618;49.972;8.242;2023-07-08T17:43:54;28.00;55.60
47857;DHT22;33618;49.972;8.242;2023-07-08T17:46:23;27.90;55.60
47857;DHT22;33618;49.972;8.242;2023-07-08T17:48:50;27.90;55.70
47857;DHT22;33618;49.972;8.242;2023-07-08T17:51:19;27.90;55.60
47857;DHT22;33618;49.972;8.242;2023-07-08T17:53:48;27.90;55.60
47857;DHT22;33618;49.972;8.242;2023-07-08T17:56:36;27.90;55.60
47857;DHT22;33618;49.972;8.242;2023-07-08T17:59:06;28.00;55.60
47857;DHT22;33618;49.972;8.242;2023-07-08T18:01:33;27.90;55.10
47857;DHT22;33618;49.972;8.242;2023-07-08T18:04:00;27.90;55.50
47857;DHT22;33618;49.972;8.242;2023-07-08T18:06:27;28.00;55.30
47857;DHT22;33618;49.972;8.242;2023-07-08T18:08:54;27.90;55.00
47857;DHT22;33618;49.972;8.242;2023-07-08T18:11:22;28.00;54.60
47857;DHT22;33618;49.972;8.242;2023-07-08T18:13:51;27.90;54.50
47857;DHT22;33618;49.972;8.242;2023-07-08T18:16:20;28.00;54.50
47857;DHT22;33618;49.972;8.242;2023-07-08T18:18:47;28.00;53.40
47857;DHT22;33618;49.972;8.242;2023-07-08T18:21:19;28.20;52.80
47857;DHT22;33618;49.972;8.242;2023-07-08T18:23:47;28.30;52.70
47857;DHT22;33618;49.972;8.242;2023-07-08T18:26:18;28.40;52.60
47857;DHT22;33618;49.972;8.242;2023-07-08T18:28:46;28.50;53.00
47857;DHT22;33618;49.972;8.242;2023-07-08T18:34:34;29.00;52.80
47857;DHT22;33618;49.972;8.242;2023-07-08T18:37:01;29.00;52.60
47857;DHT22;33618;49.972;8.242;2023-07-08T18:39:29;28.80;52.90
47857;DHT22;33618;49.972;8.242;2023-07-08T18:41:56;28.50;53.30
47857;DHT22;33618;49.972;8.242;2023-07-08T18:44:28;28.40;53.90
47857;DHT22;33618;49.972;8.242;2023-07-08T18:46:55;28.30;54.20
47857;DHT22;33618;49.972;8.242;2023-07-08T18:49:23;28.10;54.40
47857;DHT22;33618;49.972;8.242;2023-07-08T18:51:55;28.00;54.30
47857;DHT22;33618;49.972;8.242;2023-07-08T18:54:22;28.00;54.30
47857;DHT22;33618;49.972;8.242;2023-07-08T18:56:51;27.90;54.50
47857;DHT22;33618;49.972;8.242;2023-07-08T18:59:18;28.00;55.10
47857;DHT22;33618;49.972;8.242;2023-07-08T19:01:49;28.00;55.30
47857;DHT22;33618;49.972;8.242;2023-07-08T19:04:26;27.90;55.30
47857;DHT22;33618;49.972;8.242;2023-07-08T19:06:56;27.80;55.40
47857;DHT22;33618;49.972;8.242;2023-07-08T19:09:24;27.90;55.00
47857;DHT22;33618;49.972;8.242;2023-07-08T19:11:51;27.80;55.20
47857;DHT22;33618;49.972;8.242;2023-07-08T19:14:18;27.90;54.90
47857;DHT22;33618;49.972;8.242;2023-07-08T19:16:45;27.90;54.80
47857;DHT22;33618;49.972;8.242;2023-07-08T19:19:12;28.00;55.00
47857;DHT22;33618;49.972;8.242;2023-07-08T19:21:40;28.00;55.00
47857;DHT22;33618;49.972;8.242;2023-07-08T19:24:12;27.90;55.30
47857;DHT22;33618;49.972;8.242;2023-07-08T19:26:50;27.80;56.10
47857;DHT22;33618;49.972;8.242;2023-07-08T19:29:16;27.80;58.00
47857;DHT22;33618;49.972;8.242;2023-07-08T19:31:46;27.60;59.90
47857;DHT22;33618;49.972;8.242;2023-07-08T19:34:14;27.40;61.10
47857;DHT22;33618;49.972;8.242;2023-07-08T19:36:42;27.10;62.10
47857;DHT22;33618;49.972;8.242;2023-07-08T19:39:09;26.70;62.90
47857;DHT22;33618;49.972;8.242;2023-07-08T19:41:37;26.40;63.60
47857;DHT22;33618;49.972;8.242;2023-07-08T19:44:20;26.10;64.10
47857;DHT22;33618;49.972;8.242;2023-07-08T19:46:48;26.00;64.40
47857;DHT22;33618;49.972;8.242;2023-07-08T19:49:16;25.90;66.40
47857;DHT22;33618;49.972;8.242;2023-07-08T19:51:43;25.70;68.00
47857;DHT22;33618;49.972;8.242;2023-07-08T19:54:10;25.30;69.70
47857;DHT22;33618;49.972;8.242;2023-07-08T19:56:36;25.10;70.40
47857;DHT22;33618;49.972;8.242;2023-07-08T19:59:04;25.10;69.90
47857;DHT22;33618;49.972;8.242;2023-07-08T20:01:45;25.10;69.20
47857;DHT22;33618;49.972;8.242;2023-07-08T20:04:12;25.20;68.80
47857;DHT22;33618;49.972;8.242;2023-07-08T20:06:43;25.20;68.80
47857;DHT22;33618;49.972;8.242;2023-07-08T20:09:12;25.20;69.50
47857;DHT22;33618;49.972;8.242;2023-07-08T20:11:41;25.20;72.00
47857;DHT22;33618;49.972;8.242;2023-07-08T20:14:08;25.20;71.90
47857;DHT22;33618;49.972;8.242;2023-07-08T20:16:36;25.10;72.60
47857;DHT22;33618;49.972;8.242;2023-07-08T20:19:04;25.10;74.50
47857;DHT22;33618;49.972;8.242;2023-07-08T20:21:31;25.10;74.20
47857;DHT22;33618;49.972;8.242;2023-07-08T20:23:58;25.10;74.80
47857;DHT22;33618;49.972;8.242;2023-07-08T20:26:27;25.10;73.30
47857;DHT22;33618;49.972;8.242;2023-07-08T20:28:54;25.30;71.90
47857;DHT22;33618;49.972;8.242;2023-07-08T20:31:23;25.30;71.50
47857;DHT22;33618;49.972;8.242;2023-07-08T20:33:51;25.20;71.10
47857;DHT22;33618;49.972;8.242;2023-07-08T20:36:19;25.30;70.90
47857;DHT22;33618;49.972;8.242;2023-07-08T20:38:47;25.30;70.80
47857;DHT22;33618;49.972;8.242;2023-07-08T20:41:14;25.30;71.10
47857;DHT22;33618;49.972;8.242;2023-07-08T20:43:42;25.30;71.30
47857;DHT22;33618;49.972;8.242;2023-07-08T20:46:21;25.30;72.20
47857;DHT22;33618;49.972;8.242;2023-07-08T20:48:54;25.10;73.10
47857;DHT22;33618;49.972;8.242;2023-07-08T20:51:22;24.90;75.30
47857;DHT22;33618;49.972;8.242;2023-07-08T20:53:52;24.90;74.50
47857;DHT22;33618;49.972;8.242;2023-07-08T20:56:34;24.90;73.90
47857;DHT22;33618;49.972;8.242;2023-07-08T20:59:01;24.90;73.70
47857;DHT22;33618;49.972;8.242;2023-07-08T21:01:28;24.90;72.70
47857;DHT22;33618;49.972;8.242;2023-07-08T21:03:59;24.80;72.90
47857;DHT22;33618;49.972;8.242;2023-07-08T21:06:29;24.90;73.00
47857;DHT22;33618;49.972;8.242;2023-07-08T21:08:58;24.80;73.50
47857;DHT22;33618;49.972;8.242;2023-07-08T21:11:26;24.70;73.90
47857;DHT22;33618;49.972;8.242;2023-07-08T21:13:53;24.70;73.30
47857;DHT22;33618;49.972;8.242;2023-07-08T21:16:23;24.60;73.20
47857;DHT22;33618;49.972;8.242;2023-07-08T21:18:52;24.60;73.20
47857;DHT22;33618;49.972;8.242;2023-07-08T21:21:20;24.70;73.20
47857;DHT22;33618;49.972;8.242;2023-07-08T21:23:48;24.70;73.00
47857;DHT22;33618;49.972;8.242;2023-07-08T21:26:27;24.60;73.40
47857;DHT22;33618;49.972;8.242;2023-07-08T21:28:57;24.60;73.20
47857;DHT22;33618;49.972;8.242;2023-07-08T21:31:25;24.70;73.10
47857;DHT22;33618;49.972;8.242;2023-07-08T21:33:52;24.60;73.20
47857;DHT22;33618;49.972;8.242;2023-07-08T21:38:45;24.50;74.10
47857;DHT22;33618;49.972;8.242;2023-07-08T21:41:12;24.40;75.20
47857;DHT22;33618;49.972;8.242;2023-07-08T21:43:39;24.40;74.90
47857;DHT22;33618;49.972;8.242;2023-07-08T21:46:09;24.40;74.50
47857;DHT22;33618;49.972;8.242;2023-07-08T21:48:37;24.40;74.80
47857;DHT22;33618;49.972;8.242;2023-07-08T21:51:35;24.30;75.70
47857;DHT22;33618;49.972;8.242;2023-07-08T21:54:02;24.20;75.90
47857;DHT22;33618;49.972;8.242;2023-07-08T21:56:30;24.30;75.50
47857;DHT22;33618;49.972;8.242;2023-07-08T21:58:57;24.20;76.10
47857;DHT22;33618;49.972;8.242;2023-07-08T22:01:35;24.40;74.80
47857;DHT22;33618;49.972;8.242;2023-07-08T22:04:02;24.50;74.60
47857;DHT22;33618;49.972;8.242;2023-07-08T22:06:29;24.60;74.50
47857;DHT22;33618;49.972;8.242;2023-07-08T22:08:56;24.40;74.80
47857;DHT22;33618;49.972;8.242;2023-07-08T22:11:37;24.30;75.60
47857;DHT22;33618;49.972;8.242;2023-07-08T22:14:06;24.30;75.70
47857;DHT22;33618;49.972;8.242;2023-07-08T22:16:36;24.20;76.50
47857;DHT22;33618;49.972;8.242;2023-07-08T22:19:04;24.10;77.20
47857;DHT22;33618;49.972;8.242;2023-07-08T22:21:36;24.00;77.80
47857;DHT22;33618;49.972;8.242;2023-07-08T22:24:07;23.90;78.40
47857;DHT22;33618;49.972;8.242;2023-07-08T22:26:37;23.80;79.40
47857;DHT22;33618;49.972;8.242;2023-07-08T22:29:08;23.80;79.50
47857;DHT22;33618;49.972;8.242;2023-07-08T22:31:38;23.60;81.10
47857;DHT22;33618;49.972;8.242;2023-07-08T22:34:17;23.50;82.30
47857;DHT22;33618;49.972;8.242;2023-07-08T22:36:44;23.40;81.30
47857;DHT22;33618;49.972;8.242;2023-07-08T22:39:11;23.40;81.30
47857;DHT22;33618;49.972;8.242;2023-07-08T22:41:44;23.60;80.80
47857;DHT22;33618;49.972;8.242;2023-07-08T22:44:14;23.60;80.70
47857;DHT22;33618;49.972;8.242;2023-07-08T22:46:44;23.60;81.00
47857;DHT22;33618;49.972;8.242;2023-07-08T22:49:11;23.50;80.80
47857;DHT22;33618;49.972;8.242;2023-07-08T22:51:54;23.50;81.60
47857;DHT22;33618;49.972;8.242;2023-07-08T22:54:22;23.60;81.30
47857;DHT22;33618;49.972;8.242;2023-07-08T22:56:50;23.60;80.40